sensor_id;sensor_type;location;lat;lon;timestamp;temperature;humidity
74511;DHT22;62991;50.040;18.400;2023-08-31T00:01:58;16.80;78.80
74511;DHT22;62991;50.040;18.400;2023-08-31T00:04:59;16.70;78.90
74511;DHT22;62991;50.040;18.400;2023-08-31T00:08:00;16.50;79.50
74511;DHT22;62991;50.040;18.400;2023-08-31T00:11:01;16.60;79.60
74511;DHT22;62991;50.040;18.400;2023-08-31T00:14:01;16.80;78.90
74511;DHT22;62991;50.040;18.400;2023-08-31T00:17:02;16.50;79.40
74511;DHT22;62991;50.040;18.400;2023-08-31T00:20:05;16.50;79.80
74511;DHT22;62991;50.040;18.400;2023-08-31T00:23:07;16.60;79.60
74511;DHT22;62991;50.040;18.400;2023-08-31T00:26:07;16.80;78.90
74511;DHT22;62991;50.040;18.400;2023-08-31T00:29:09;16.80;78.90
74511;DHT22;62991;50.040;18.400;2023-08-31T00:32:11;16.90;78.80
74511;DHT22;62991;50.040;18.400;2023-08-31T00:35:11;16.90;78.30
74511;DHT22;62991;50.040;18.400;2023-08-31T00:38:13;17.00;78.20
74511;DHT22;62991;50.040;18.400;2023-08-31T00:41:17;17.00;77.80
74511;DHT22;62991;50.040;18.400;2023-08-31T00:44:17;16.90;78.20
74511;DHT22;62991;50.040;18.400;2023-08-31T00:47:19;16.90;78.20
74511;DHT22;62991;50.040;18.400;2023-08-31T00:50:20;17.00;78.10
74511;DHT22;62991;50.040;18.400;2023-08-31T00:53:21;17.00;78.20
74511;DHT22;62991;50.040;18.400;2023-08-31T00:56:22;17.00;78.20
74511;DHT22;62991;50.040;18.400;2023-08-31T00:59:22;17.00;78.00
74511;DHT22;62991;50.040;18.400;2023-08-31T01:13:24;17.00;78.20
74511;DHT22;62991;50.040;18.400;2023-08-31T01:16:26;17.00;78.10
74511;DHT22;62991;50.040;18.400;2023-08-31T01:22:57;17.00;78.20
74511;DHT22;62991;50.040;18.400;2023-08-31T01:26:00;17.00;78.00
74511;DHT22;62991;50.040;18.400;2023-08-31T01:29:00;17.00;78.00
74511;DHT22;62991;50.040;18.400;2023-08-31T01:32:05;17.00;78.00
74511;DHT22;62991;50.040;18.400;2023-08-31T01:35:07;16.90;78.30
74511;DHT22;62991;50.040;18.400;2023-08-31T01:38:09;16.90;78.30
74511;DHT22;62991;50.040;18.400;2023-08-31T01:41:14;16.80;78.60
74511;DHT22;62991;50.040;18.400;2023-08-31T01:44:18;16.90;78.60
74511;DHT22;62991;50.040;18.400;2023-08-31T01:47:20;16.80;78.50
74511;DHT22;62991;50.040;18.400;2023-08-31T01:50:21;16.70;79.10
74511;DHT22;62991;50.040;18.400;2023-08-31T01:53:22;16.70;79.00
74511;DHT22;62991;50.040;18.400;2023-08-31T01:56:23;16.70;79.30
74511;DHT22;62991;50.040;18.400;2023-08-31T01:59:23;16.80;79.00
74511;DHT22;62991;50.040;18.400;2023-08-31T02:02:24;16.80;78.90
74511;DHT22;62991;50.040;18.400;2023-08-31T02:05:25;16.70;79.30
74511;DHT22;62991;50.040;18.400;2023-08-31T02:08:25;16.60;79.60
74511;DHT22;62991;50.040;18.400;2023-08-31T02:11:26;16.70;79.60
74511;DHT22;62991;50.040;18.400;2023-08-31T02:14:27;16.70;78.70
74511;DHT22;62991;50.040;18.400;2023-08-31T02:17:29;16.70;79.40
74511;DHT22;62991;50.040;18.400;2023-08-31T02:20:30;16.60;79.30
74511;DHT22;62991;50.040;18.400;2023-08-31T02:23:31;16.60;79.30
74511;DHT22;62991;50.040;18.400;2023-08-31T02:26:31;16.40;79.80
74511;DHT22;62991;50.040;18.400;2023-08-31T02:29:32;16.50;79.80
74511;DHT22;62991;50.040;18.400;2023-08-31T02:32:33;16.50;79.50
74511;DHT22;62991;50.040;18.400;2023-08-31T02:35:33;16.40;79.80
74511;DHT22;62991;50.040;18.400;2023-08-31T02:38:34;16.40;79.80
74511;DHT22;62991;50.040;18.400;2023-08-31T02:41:35;16.30;79.80
74511;DHT22;62991;50.040;18.400;2023-08-31T02:44:35;16.40;79.80
74511;DHT22;62991;50.040;18.400;2023-08-31T02:47:36;16.50;79.50
74511;DHT22;62991;50.040;18.400;2023-08-31T02:50:37;16.50;79.10
74511;DHT22;62991;50.040;18.400;2023-08-31T02:53:38;16.50;79.20
74511;DHT22;62991;50.040;18.400;2023-08-31T02:56:39;16.50;79.60
74511;DHT22;62991;50.040;18.400;2023-08-31T02:59:39;16.30;80.00
74511;DHT22;62991;50.040;18.400;2023-08-31T03:02:40;16.30;80.10
74511;DHT22;62991;50.040;18.400;2023-08-31T03:05:41;16.20;80.40
74511;DHT22;62991;50.040;18.400;2023-08-31T03:08:41;16.20;80.10
74511;DHT22;62991;50.040;18.400;2023-08-31T03:11:42;16.20;80.10
74511;DHT22;62991;50.040;18.400;2023-08-31T03:14:43;16.20;79.90
74511;DHT22;62991;50.040;18.400;2023-08-31T03:17:43;16.20;79.60
74511;DHT22;62991;50.040;18.400;2023-08-31T03:20:44;16.20;79.50
74511;DHT22;62991;50.040;18.400;2023-08-31T03:23:45;16.20;80.10
74511;DHT22;62991;50.040;18.400;2023-08-31T03:26:45;16.10;79.90
74511;DHT22;62991;50.040;18.400;2023-08-31T03:29:46;16.10;79.70
74511;DHT22;62991;50.040;18.400;2023-08-31T03:32:46;16.10;79.90
74511;DHT22;62991;50.040;18.400;2023-08-31T03:35:47;15.90;80.50
74511;DHT22;62991;50.040;18.400;2023-08-31T03:38:48;15.90;80.40
74511;DHT22;62991;50.040;18.400;2023-08-31T03:41:48;15.80;80.90
74511;DHT22;62991;50.040;18.400;2023-08-31T03:44:49;15.90;80.90
74511;DHT22;62991;50.040;18.400;2023-08-31T03:47:50;15.90;80.20
74511;DHT22;62991;50.040;18.400;2023-08-31T03:50:51;16.00;80.00
74511;DHT22;62991;50.040;18.400;2023-08-31T03:53:52;15.90;79.80
74511;DHT22;62991;50.040;18.400;2023-08-31T03:56:55;15.60;80.20
74511;DHT22;62991;50.040;18.400;2023-08-31T03:59:55;15.50;81.00
74511;DHT22;62991;50.040;18.400;2023-08-31T04:02:56;15.60;80.90
74511;DHT22;62991;50.040;18.400;2023-08-31T04:05:56;15.70;80.60
74511;DHT22;62991;50.040;18.400;2023-08-31T04:08:57;15.60;80.30
74511;DHT22;62991;50.040;18.400;2023-08-31T04:11:58;15.60;80.40
74511;DHT22;62991;50.040;18.400;2023-08-31T04:14:59;15.60;80.40
74511;DHT22;62991;50.040;18.400;2023-08-31T04:17:59;15.70;80.30
74511;DHT22;62991;50.040;18.400;2023-08-31T04:21:00;15.70;80.10
74511;DHT22;62991;50.040;18.400;2023-08-31T04:24:03;15.60;80.50
74511;DHT22;62991;50.040;18.400;2023-08-31T04:27:04;15.50;80.90
74511;DHT22;62991;50.040;18.400;2023-08-31T04:30:05;15.50;81.30
74511;DHT22;62991;50.040;18.400;2023-08-31T04:33:07;15.50;81.00
74511;DHT22;62991;50.040;18.400;2023-08-31T04:36:08;15.50;80.90
74511;DHT22;62991;50.040;18.400;2023-08-31T04:39:08;15.40;81.30
74511;DHT22;62991;50.040;18.400;2023-08-31T04:42:09;15.50;81.60
74511;DHT22;62991;50.040;18.400;2023-08-31T04:45:10;15.50;81.10
74511;DHT22;62991;50.040;18.400;2023-08-31T04:48:12;15.30;82.20
74511;DHT22;62991;50.040;18.400;2023-08-31T04:51:34;15.20;82.80
74511;DHT22;62991;50.040;18.400;2023-08-31T04:54:35;15.20;83.00
74511;DHT22;62991;50.040;18.400;2023-08-31T04:57:36;15.30;83.00
74511;DHT22;62991;50.040;18.400;2023-08-31T05:00:37;15.20;82.70
74511;DHT22;62991;50.040;18.400;2023-08-31T05:03:39;15.30;82.70
74511;DHT22;62991;50.040;18.400;2023-08-31T05:06:40;15.20;82.70
74511;DHT22;62991;50.040;18.400;2023-08-31T05:09:41;15.30;82.90
74511;DHT22;62991;50.040;18.400;2023-08-31T05:12:41;15.30;82.40
74511;DHT22;62991;50.040;18.400;2023-08-31T05:15:42;15.30;82.80
74511;DHT22;62991;50.040;18.400;2023-08-31T05:18:42;15.30;82.70
74511;DHT22;62991;50.040;18.400;2023-08-31T05:21:43;15.20;82.50
74511;DHT22;62991;50.040;18.400;2023-08-31T05:24:44;15.20;82.80
74511;DHT22;62991;50.040;18.400;2023-08-31T05:27:44;15.30;82.40
74511;DHT22;62991;50.040;18.400;2023-08-31T05:30:52;15.30;81.90
74511;DHT22;62991;50.040;18.400;2023-08-31T05:33:53;15.50;81.90
74511;DHT22;62991;50.040;18.400;2023-08-31T05:36:53;15.60;80.90
74511;DHT22;62991;50.040;18.400;2023-08-31T05:39:54;15.60;81.00
74511;DHT22;62991;50.040;18.400;2023-08-31T05:42:55;15.60;81.20
74511;DHT22;62991;50.040;18.400;2023-08-31T05:45:55;15.60;81.10
74511;DHT22;62991;50.040;18.400;2023-08-31T05:48:56;15.70;81.30
74511;DHT22;62991;50.040;18.400;2023-08-31T05:51:57;15.70;81.50
74511;DHT22;62991;50.040;18.400;2023-08-31T05:54:57;15.80;80.90
74511;DHT22;62991;50.040;18.400;2023-08-31T05:57:58;15.80;81.00
74511;DHT22;62991;50.040;18.400;2023-08-31T06:00:59;15.90;80.50
74511;DHT22;62991;50.040;18.400;2023-08-31T06:03:59;15.90;80.90
74511;DHT22;62991;50.040;18.400;2023-08-31T06:07:00;15.90;80.60
74511;DHT22;62991;50.040;18.400;2023-08-31T06:10:01;15.80;80.80
74511;DHT22;62991;50.040;18.400;2023-08-31T06:13:01;16.00;80.80
74511;DHT22;62991;50.040;18.400;2023-08-31T06:16:02;16.10;80.60
74511;DHT22;62991;50.040;18.400;2023-08-31T06:19:03;16.00;80.40
74511;DHT22;62991;50.040;18.400;2023-08-31T06:22:04;15.80;81.20
74511;DHT22;62991;50.040;18.400;2023-08-31T06:25:04;15.90;81.90
74511;DHT22;62991;50.040;18.400;2023-08-31T06:28:06;16.00;81.60
74511;DHT22;62991;50.040;18.400;2023-08-31T06:31:09;16.10;80.20
74511;DHT22;62991;50.040;18.400;2023-08-31T06:34:09;16.10;80.50
74511;DHT22;62991;50.040;18.400;2023-08-31T06:37:10;16.10;80.90
74511;DHT22;62991;50.040;18.400;2023-08-31T06:40:11;16.40;80.50
74511;DHT22;62991;50.040;18.400;2023-08-31T06:43:11;16.40;80.10
74511;DHT22;62991;50.040;18.400;2023-08-31T06:46:12;16.40;79.80
74511;DHT22;62991;50.040;18.400;2023-08-31T06:49:13;16.50;79.30
74511;DHT22;62991;50.040;18.400;2023-08-31T06:52:15;16.60;79.20
74511;DHT22;62991;50.040;18.400;2023-08-31T06:55:16;16.70;79.40
74511;DHT22;62991;50.040;18.400;2023-08-31T06:58:17;16.50;79.60
74511;DHT22;62991;50.040;18.400;2023-08-31T07:01:17;16.60;78.90
74511;DHT22;62991;50.040;18.400;2023-08-31T07:04:18;16.60;79.20
74511;DHT22;62991;50.040;18.400;2023-08-31T07:07:19;16.70;78.90
74511;DHT22;62991;50.040;18.400;2023-08-31T07:10:21;16.70;78.30
74511;DHT22;62991;50.040;18.400;2023-08-31T07:13:21;16.70;78.30
74511;DHT22;62991;50.040;18.400;2023-08-31T07:16:22;16.80;78.20
74511;DHT22;62991;50.040;18.400;2023-08-31T07:19:23;16.80;78.20
74511;DHT22;62991;50.040;18.400;2023-08-31T07:22:23;16.80;77.80
74511;DHT22;62991;50.040;18.400;2023-08-31T07:25:24;16.90;77.30
74511;DHT22;62991;50.040;18.400;2023-08-31T07:28:24;17.00;77.30
74511;DHT22;62991;50.040;18.400;2023-08-31T07:31:25;17.10;77.70
74511;DHT22;62991;50.040;18.400;2023-08-31T07:34:26;16.90;78.20
74511;DHT22;62991;50.040;18.400;2023-08-31T07:37:27;17.00;77.90
74511;DHT22;62991;50.040;18.400;2023-08-31T07:40:27;17.10;77.70
74511;DHT22;62991;50.040;18.400;2023-08-31T07:43:28;17.20;77.50
74511;DHT22;62991;50.040;18.400;2023-08-31T07:46:30;17.30;76.60
74511;DHT22;62991;50.040;18.400;2023-08-31T07:49:30;17.20;76.00
74511;DHT22;62991;50.040;18.400;2023-08-31T07:52:31;17.10;75.80
74511;DHT22;62991;50.040;18.400;2023-08-31T07:55:32;17.20;76.20
74511;DHT22;62991;50.040;18.400;2023-08-31T07:58:32;17.20;76.50
74511;DHT22;62991;50.040;18.400;2023-08-31T08:01:33;17.30;75.80
74511;DHT22;62991;50.040;18.400;2023-08-31T08:04:34;17.40;76.60
74511;DHT22;62991;50.040;18.400;2023-08-31T08:07:34;17.40;75.80
74511;DHT22;62991;50.040;18.400;2023-08-31T08:10:35;17.30;76.30
74511;DHT22;62991;50.040;18.400;2023-08-31T08:13:36;17.30;76.50
74511;DHT22;62991;50.040;18.400;2023-08-31T08:16:37;17.30;76.40
74511;DHT22;62991;50.040;18.400;2023-08-31T08:19:37;17.20;76.00
74511;DHT22;62991;50.040;18.400;2023-08-31T08:22:38;17.20;77.00
74511;DHT22;62991;50.040;18.400;2023-08-31T08:25:38;17.30;77.00
74511;DHT22;62991;50.040;18.400;2023-08-31T08:28:39;17.40;77.10
74511;DHT22;62991;50.040;18.400;2023-08-31T08:31:40;17.50;77.10
74511;DHT22;62991;50.040;18.400;2023-08-31T08:34:41;17.60;77.20
74511;DHT22;62991;50.040;18.400;2023-08-31T08:37:41;17.50;74.10
74511;DHT22;62991;50.040;18.400;2023-08-31T08:40:42;17.50;75.40
74511;DHT22;62991;50.040;18.400;2023-08-31T08:43:43;17.50;75.90
74511;DHT22;62991;50.040;18.400;2023-08-31T08:46:45;17.60;76.80
74511;DHT22;62991;50.040;18.400;2023-08-31T08:49:48;17.60;74.50
74511;DHT22;62991;50.040;18.400;2023-08-31T08:52:49;17.60;74.20
74511;DHT22;62991;50.040;18.400;2023-08-31T08:55:50;17.80;73.20
74511;DHT22;62991;50.040;18.400;2023-08-31T08:58:51;17.90;73.60
74511;DHT22;62991;50.040;18.400;2023-08-31T09:01:51;18.00;74.80
74511;DHT22;62991;50.040;18.400;2023-08-31T09:04:52;18.10;73.90
74511;DHT22;62991;50.040;18.400;2023-08-31T09:08:08;18.10;73.70
74511;DHT22;62991;50.040;18.400;2023-08-31T09:11:20;18.40;74.40
74511;DHT22;62991;50.040;18.400;2023-08-31T09:14:24;18.50;72.30
74511;DHT22;62991;50.040;18.400;2023-08-31T09:17:24;18.60;72.50
74511;DHT22;62991;50.040;18.400;2023-08-31T09:20:28;18.80;71.70
74511;DHT22;62991;50.040;18.400;2023-08-31T09:23:29;18.90;71.70
74511;DHT22;62991;50.040;18.400;2023-08-31T09:26:37;18.90;71.80
74511;DHT22;62991;50.040;18.400;2023-08-31T09:29:38;18.90;70.80
74511;DHT22;62991;50.040;18.400;2023-08-31T09:32:39;18.80;71.00
74511;DHT22;62991;50.040;18.400;2023-08-31T09:35:57;18.80;71.40
74511;DHT22;62991;50.040;18.400;2023-08-31T09:39:00;18.90;71.10
74511;DHT22;62991;50.040;18.400;2023-08-31T09:42:00;19.10;69.50
74511;DHT22;62991;50.040;18.400;2023-08-31T09:45:04;19.40;70.30
74511;DHT22;62991;50.040;18.400;2023-08-31T09:48:05;19.40;69.20
74511;DHT22;62991;50.040;18.400;2023-08-31T09:51:06;19.50;70.10
74511;DHT22;62991;50.040;18.400;2023-08-31T09:54:07;19.70;69.60
74511;DHT22;62991;50.040;18.400;2023-08-31T09:57:10;19.70;69.40
74511;DHT22;62991;50.040;18.400;2023-08-31T10:00:12;19.70;64.80
74511;DHT22;62991;50.040;18.400;2023-08-31T10:03:16;19.90;64.30
74511;DHT22;62991;50.040;18.400;2023-08-31T10:06:18;19.80;60.70
74511;DHT22;62991;50.040;18.400;2023-08-31T10:09:19;19.70;58.30
74511;DHT22;62991;50.040;18.400;2023-08-31T10:12:20;19.80;59.90
74511;DHT22;62991;50.040;18.400;2023-08-31T10:15:32;20.00;59.90
74511;DHT22;62991;50.040;18.400;2023-08-31T10:18:34;20.10;57.80
74511;DHT22;62991;50.040;18.400;2023-08-31T10:21:37;20.00;58.80
74511;DHT22;62991;50.040;18.400;2023-08-31T10:25:00;20.10;58.50
74511;DHT22;62991;50.040;18.400;2023-08-31T10:28:17;20.20;59.30
74511;DHT22;62991;50.040;18.400;2023-08-31T10:31:22;20.10;58.20
74511;DHT22;62991;50.040;18.400;2023-08-31T10:34:37;20.00;59.00
74511;DHT22;62991;50.040;18.400;2023-08-31T10:37:41;20.10;58.20
74511;DHT22;62991;50.040;18.400;2023-08-31T10:44:21;20.20;59.00
74511;DHT22;62991;50.040;18.400;2023-08-31T10:47:42;20.30;59.60
74511;DHT22;62991;50.040;18.400;2023-08-31T10:50:45;20.40;57.90
74511;DHT22;62991;50.040;18.400;2023-08-31T10:53:47;20.30;56.30
74511;DHT22;62991;50.040;18.400;2023-08-31T10:59:57;20.40;58.50
74511;DHT22;62991;50.040;18.400;2023-08-31T11:03:02;20.40;58.00
74511;DHT22;62991;50.040;18.400;2023-08-31T11:06:10;20.60;58.70
74511;DHT22;62991;50.040;18.400;2023-08-31T11:09:19;20.70;58.20
74511;DHT22;62991;50.040;18.400;2023-08-31T11:12:22;20.80;55.80
74511;DHT22;62991;50.040;18.400;2023-08-31T11:15:26;20.60;55.80
74511;DHT22;62991;50.040;18.400;2023-08-31T11:18:27;20.50;55.00
74511;DHT22;62991;50.040;18.400;2023-08-31T11:21:29;20.70;55.00
74511;DHT22;62991;50.040;18.400;2023-08-31T11:24:32;20.70;55.40
74511;DHT22;62991;50.040;18.400;2023-08-31T11:27:33;20.80;54.90
74511;DHT22;62991;50.040;18.400;2023-08-31T11:30:34;20.80;53.60
74511;DHT22;62991;50.040;18.400;2023-08-31T11:33:35;20.80;53.20
74511;DHT22;62991;50.040;18.400;2023-08-31T11:36:38;20.70;53.30
74511;DHT22;62991;50.040;18.400;2023-08-31T11:39:39;20.70;53.30
74511;DHT22;62991;50.040;18.400;2023-08-31T11:42:40;20.80;52.50
74511;DHT22;62991;50.040;18.400;2023-08-31T11:45:41;21.10;53.50
74511;DHT22;62991;50.040;18.400;2023-08-31T11:48:43;21.10;52.90
74511;DHT22;62991;50.040;18.400;2023-08-31T11:51:44;21.20;53.40
74511;DHT22;62991;50.040;18.400;2023-08-31T11:54:45;21.40;53.50
74511;DHT22;62991;50.040;18.400;2023-08-31T11:57:53;21.40;53.50
74511;DHT22;62991;50.040;18.400;2023-08-31T12:00:58;21.30;52.70
74511;DHT22;62991;50.040;18.400;2023-08-31T12:03:59;21.20;54.20
74511;DHT22;62991;50.040;18.400;2023-08-31T12:07:02;21.40;53.50
74511;DHT22;62991;50.040;18.400;2023-08-31T12:10:05;21.40;53.70
74511;DHT22;62991;50.040;18.400;2023-08-31T12:13:09;21.20;54.10
74511;DHT22;62991;50.040;18.400;2023-08-31T12:16:13;20.90;54.20
74511;DHT22;62991;50.040;18.400;2023-08-31T12:19:14;20.60;54.80
74511;DHT22;62991;50.040;18.400;2023-08-31T12:22:14;20.50;55.40
74511;DHT22;62991;50.040;18.400;2023-08-31T12:25:24;20.20;55.90
74511;DHT22;62991;50.040;18.400;2023-08-31T12:28:25;19.90;56.90
74511;DHT22;62991;50.040;18.400;2023-08-31T12:31:26;19.80;57.40
74511;DHT22;62991;50.040;18.400;2023-08-31T12:34:27;19.80;57.90
74511;DHT22;62991;50.040;18.400;2023-08-31T12:37:27;19.80;56.70
74511;DHT22;62991;50.040;18.400;2023-08-31T12:40:28;19.70;56.00
74511;DHT22;62991;50.040;18.400;2023-08-31T12:43:29;19.50;56.80
74511;DHT22;62991;50.040;18.400;2023-08-31T12:46:30;19.50;57.70
74511;DHT22;62991;50.040;18.400;2023-08-31T12:49:31;19.40;57.00
74511;DHT22;62991;50.040;18.400;2023-08-31T12:52:32;19.40;56.80
74511;DHT22;62991;50.040;18.400;2023-08-31T12:55:32;19.30;57.80
74511;DHT22;62991;50.040;18.400;2023-08-31T12:58:33;19.30;56.90
74511;DHT22;62991;50.040;18.400;2023-08-31T13:01:34;19.30;57.60
74511;DHT22;62991;50.040;18.400;2023-08-31T13:04:34;19.30;57.20
74511;DHT22;62991;50.040;18.400;2023-08-31T13:07:36;19.40;58.50
74511;DHT22;62991;50.040;18.400;2023-08-31T13:10:37;19.60;57.70
74511;DHT22;62991;50.040;18.400;2023-08-31T13:13:38;19.80;57.50
74511;DHT22;62991;50.040;18.400;2023-08-31T13:16:39;20.00;57.90
74511;DHT22;62991;50.040;18.400;2023-08-31T13:19:40;20.00;58.50
74511;DHT22;62991;50.040;18.400;2023-08-31T13:22:41;20.20;58.10
74511;DHT22;62991;50.040;18.400;2023-08-31T13:25:42;20.30;58.50
74511;DHT22;62991;50.040;18.400;2023-08-31T13:28:42;20.40;58.40
74511;DHT22;62991;50.040;18.400;2023-08-31T13:31:43;20.50;58.50
74511;DHT22;62991;50.040;18.400;2023-08-31T13:34:44;20.60;58.60
74511;DHT22;62991;50.040;18.400;2023-08-31T13:37:45;20.70;58.10
74511;DHT22;62991;50.040;18.400;2023-08-31T13:40:45;20.90;58.90
74511;DHT22;62991;50.040;18.400;2023-08-31T13:43:46;21.60;57.60
74511;DHT22;62991;50.040;18.400;2023-08-31T13:46:50;21.80;57.50
74511;DHT22;62991;50.040;18.400;2023-08-31T13:49:52;22.40;55.60
74511;DHT22;62991;50.040;18.400;2023-08-31T13:52:53;23.30;54.60
74511;DHT22;62991;50.040;18.400;2023-08-31T13:55:54;28.50;44.50
74511;DHT22;62991;50.040;18.400;2023-08-31T13:58:55;34.00;37.30
74511;DHT22;62991;50.040;18.400;2023-08-31T14:01:55;37.40;33.40
74511;DHT22;62991;50.040;18.400;2023-08-31T14:04:56;41.00;30.40
74511;DHT22;62991;50.040;18.400;2023-08-31T14:07:58;41.40;28.30
74511;DHT22;62991;50.040;18.400;2023-08-31T14:11:01;41.50;28.50
74511;DHT22;62991;50.040;18.400;2023-08-31T14:14:03;43.70;28.10
74511;DHT22;62991;50.040;18.400;2023-08-31T14:17:05;44.70;26.80
74511;DHT22;62991;50.040;18.400;2023-08-31T14:20:07;43.70;27.70
74511;DHT22;62991;50.040;18.400;2023-08-31T14:23:09;42.80;27.80
74511;DHT22;62991;50.040;18.400;2023-08-31T14:26:10;41.20;29.20
74511;DHT22;62991;50.040;18.400;2023-08-31T14:29:11;40.20;30.20
74511;DHT22;62991;50.040;18.400;2023-08-31T14:32:12;39.50;30.60
74511;DHT22;62991;50.040;18.400;2023-08-31T14:35:15;37.10;32.40
74511;DHT22;62991;50.040;18.400;2023-08-31T14:38:23;35.20;34.50
74511;DHT22;62991;50.040;18.400;2023-08-31T14:41:24;31.30;39.40
74511;DHT22;62991;50.040;18.400;2023-08-31T14:44:25;32.00;39.20
74511;DHT22;62991;50.040;18.400;2023-08-31T14:47:25;29.40;41.90
74511;DHT22;62991;50.040;18.400;2023-08-31T14:50:26;27.30;45.70
74511;DHT22;62991;50.040;18.400;2023-08-31T14:53:27;26.20;46.20
74511;DHT22;62991;50.040;18.400;2023-08-31T14:56:28;25.70;45.90
74511;DHT22;62991;50.040;18.400;2023-08-31T14:59:28;25.90;40.40
74511;DHT22;62991;50.040;18.400;2023-08-31T15:02:29;25.10;39.70
74511;DHT22;62991;50.040;18.400;2023-08-31T15:05:30;23.20;41.50
74511;DHT22;62991;50.040;18.400;2023-08-31T15:08:40;23.20;42.40
74511;DHT22;62991;50.040;18.400;2023-08-31T15:11:41;23.70;42.30
74511;DHT22;62991;50.040;18.400;2023-08-31T15:14:45;24.20;42.00
74511;DHT22;62991;50.040;18.400;2023-08-31T15:17:45;24.60;39.40
74511;DHT22;62991;50.040;18.400;2023-08-31T15:20:47;24.10;40.40
74511;DHT22;62991;50.040;18.400;2023-08-31T15:23:48;24.20;39.80
74511;DHT22;62991;50.040;18.400;2023-08-31T15:26:48;23.90;40.40
74511;DHT22;62991;50.040;18.400;2023-08-31T15:29:49;23.80;40.90
74511;DHT22;62991;50.040;18.400;2023-08-31T15:32:50;24.00;40.50
74511;DHT22;62991;50.040;18.400;2023-08-31T15:35:51;23.70;40.90
74511;DHT22;62991;50.040;18.400;2023-08-31T15:38:54;23.70;40.40
74511;DHT22;62991;50.040;18.400;2023-08-31T15:41:54;23.20;40.70
74511;DHT22;62991;50.040;18.400;2023-08-31T15:44:55;23.50;41.80
74511;DHT22;62991;50.040;18.400;2023-08-31T15:47:56;23.50;40.50
74511;DHT22;62991;50.040;18.400;2023-08-31T15:50:58;23.40;41.20
74511;DHT22;62991;50.040;18.400;2023-08-31T15:53:59;23.30;41.30
74511;DHT22;62991;50.040;18.400;2023-08-31T15:57:04;23.10;41.50
74511;DHT22;62991;50.040;18.400;2023-08-31T16:00:05;23.10;42.00
74511;DHT22;62991;50.040;18.400;2023-08-31T16:03:06;22.90;42.70
74511;DHT22;62991;50.040;18.400;2023-08-31T16:06:09;22.80;42.60
74511;DHT22;62991;50.040;18.400;2023-08-31T16:09:12;22.90;42.30
74511;DHT22;62991;50.040;18.400;2023-08-31T16:12:13;23.00;42.90
74511;DHT22;62991;50.040;18.400;2023-08-31T16:15:13;22.90;42.90
74511;DHT22;62991;50.040;18.400;2023-08-31T16:18:14;22.60;42.90
74511;DHT22;62991;50.040;18.400;2023-08-31T16:21:15;22.10;43.50
74511;DHT22;62991;50.040;18.400;2023-08-31T16:24:16;22.00;43.70
74511;DHT22;62991;50.040;18.400;2023-08-31T16:27:17;22.00;43.80
74511;DHT22;62991;50.040;18.400;2023-08-31T16:30:17;22.00;44.90
74511;DHT22;62991;50.040;18.400;2023-08-31T16:33:18;21.90;44.90
74511;DHT22;62991;50.040;18.400;2023-08-31T16:36:19;21.80;45.10
74511;DHT22;62991;50.040;18.400;2023-08-31T16:39:20;21.80;45.30
74511;DHT22;62991;50.040;18.400;2023-08-31T16:42:21;21.40;46.10
74511;DHT22;62991;50.040;18.400;2023-08-31T16:45:22;21.50;46.50
74511;DHT22;62991;50.040;18.400;2023-08-31T16:48:23;21.30;46.30
74511;DHT22;62991;50.040;18.400;2023-08-31T16:51:23;21.10;47.20
74511;DHT22;62991;50.040;18.400;2023-08-31T16:54:24;21.10;47.40
74511;DHT22;62991;50.040;18.400;2023-08-31T16:57:26;21.10;47.60
74511;DHT22;62991;50.040;18.400;2023-08-31T17:00:27;21.00;47.90
74511;DHT22;62991;50.040;18.400;2023-08-31T17:03:29;20.80;48.20
74511;DHT22;62991;50.040;18.400;2023-08-31T17:06:29;20.80;48.50
74511;DHT22;62991;50.040;18.400;2023-08-31T17:09:30;20.50;49.30
74511;DHT22;62991;50.040;18.400;2023-08-31T17:12:31;20.70;49.90
74511;DHT22;62991;50.040;18.400;2023-08-31T17:15:33;20.70;50.00
74511;DHT22;62991;50.040;18.400;2023-08-31T17:18:33;20.80;49.10
74511;DHT22;62991;50.040;18.400;2023-08-31T17:21:34;20.60;49.00
74511;DHT22;62991;50.040;18.400;2023-08-31T17:24:35;20.40;49.70
74511;DHT22;62991;50.040;18.400;2023-08-31T17:27:35;20.00;49.30
74511;DHT22;62991;50.040;18.400;2023-08-31T17:30:36;19.80;50.10
74511;DHT22;62991;50.040;18.400;2023-08-31T17:33:37;19.70;50.50
74511;DHT22;62991;50.040;18.400;2023-08-31T17:36:37;19.60;50.50
74511;DHT22;62991;50.040;18.400;2023-08-31T17:39:38;19.40;50.40
74511;DHT22;62991;50.040;18.400;2023-08-31T17:42:39;19.30;51.00
74511;DHT22;62991;50.040;18.400;2023-08-31T17:45:43;19.40;51.70
74511;DHT22;62991;50.040;18.400;2023-08-31T17:48:43;19.50;52.00
74511;DHT22;62991;50.040;18.400;2023-08-31T17:51:55;19.40;50.80
74511;DHT22;62991;50.040;18.400;2023-08-31T17:54:56;19.30;51.10
74511;DHT22;62991;50.040;18.400;2023-08-31T17:57:57;19.30;51.50
74511;DHT22;62991;50.040;18.400;2023-08-31T18:00:57;19.40;52.40
74511;DHT22;62991;50.040;18.400;2023-08-31T18:03:58;19.40;51.60
74511;DHT22;62991;50.040;18.400;2023-08-31T18:06:59;19.40;51.50
74511;DHT22;62991;50.040;18.400;2023-08-31T18:10:00;19.40;51.10
74511;DHT22;62991;50.040;18.400;2023-08-31T18:13:01;19.30;51.60
74511;DHT22;62991;50.040;18.400;2023-08-31T18:16:02;19.40;51.10
74511;DHT22;62991;50.040;18.400;2023-08-31T18:19:06;19.20;51.60
74511;DHT22;62991;50.040;18.400;2023-08-31T18:22:07;19.20;52.10
74511;DHT22;62991;50.040;18.400;2023-08-31T18:25:08;19.10;51.70
74511;DHT22;62991;50.040;18.400;2023-08-31T18:28:09;19.10;51.50
74511;DHT22;62991;50.040;18.400;2023-08-31T18:31:10;19.00;52.60
74511;DHT22;62991;50.040;18.400;2023-08-31T18:34:11;19.00;52.20
74511;DHT22;62991;50.040;18.400;2023-08-31T18:37:12;19.10;52.90
74511;DHT22;62991;50.040;18.400;2023-08-31T18:40:12;19.00;52.10
74511;DHT22;62991;50.040;18.400;2023-08-31T18:43:15;19.00;52.70
74511;DHT22;62991;50.040;18.400;2023-08-31T18:46:16;19.10;53.00
74511;DHT22;62991;50.040;18.400;2023-08-31T18:49:16;19.10;52.50
74511;DHT22;62991;50.040;18.400;2023-08-31T18:52:17;19.00;52.20
74511;DHT22;62991;50.040;18.400;2023-08-31T18:55:18;19.10;51.80
74511;DHT22;62991;50.040;18.400;2023-08-31T18:58:18;19.00;51.80
74511;DHT22;62991;50.040;18.400;2023-08-31T19:01:20;19.00;52.00
74511;DHT22;62991;50.040;18.400;2023-08-31T19:04:20;18.80;51.90
74511;DHT22;62991;50.040;18.400;2023-08-31T19:07:21;18.80;52.10
74511;DHT22;62991;50.040;18.400;2023-08-31T19:10:22;18.70;52.40